Time;durP1;ratioP1;P1;durP2;ratioP2;P2;SDS_P1;SDS_P2;PMS_P1;PMS_P2;Temp;Humidity;BMP_temperature;BMP_pressure;BME280_temperature;BME280_humidity;BME280_pressure;Samples;Min_cycle;Max_cycle;Signal;HPM_P1;HPM_P2
2021/07/05 04:00:25;;;;;;;12.95;10.00;;;18.40;99.90;;;;;;6076404;23;20641;31
2021/07/05 04:02:51;;;;;;;10.60;9.80;;;18.40;99.90;;;;;;4953992;29;20864;-71
2021/07/05 04:05:18;;;;;;;10.27;9.47;;;18.40;99.90;;;;;;4957275;29;20936;-71
2021/07/05 04:07:45;;;;;;;11.33;10.47;;;18.40;99.90;;;;;;4951324;29;20474;-71
2021/07/05 04:10:14;;;;;;;10.03;9.13;;;18.50;99.90;;;;;;4937380;29;20469;-69
2021/07/05 04:12:41;;;;;;;10.90;10.10;;;18.50;99.90;;;;;;4923931;29;20468;-69
2021/07/05 04:15:09;;;;;;;10.30;9.30;;;18.50;99.90;;;;;;4938545;29;20934;-69
2021/07/05 04:17:37;;;;;;;10.63;9.80;;;18.60;99.90;;;;;;4937647;29;20830;-67
2021/07/05 04:20:08;;;;;;;11.00;10.10;;;18.60;99.90;;;;;;4935541;29;20485;-67
2021/07/05 04:22:34;;;;;;;11.20;10.30;;;18.60;99.90;;;;;;4936770;29;20572;-67
2021/07/05 04:25:01;;;;;;;11.70;10.80;;;18.60;99.90;;;;;;4938013;29;20913;-68
2021/07/05 04:27:28;;;;;;;12.67;11.47;;;18.60;99.90;;;;;;4937431;29;20513;-68
2021/07/05 04:29:54;;;;;;;11.40;10.30;;;18.60;99.90;;;;;;4937718;29;20461;-68
2021/07/05 04:32:21;;;;;;;12.47;11.07;;;18.60;99.90;;;;;;4937452;29;20567;-68
2021/07/05 04:34:49;;;;;;;12.73;11.73;;;18.60;99.90;;;;;;4937146;29;20461;-68
2021/07/05 04:37:16;;;;;;;11.77;10.77;;;18.60;99.90;;;;;;4937529;29;20918;-68
2021/07/05 04:39:43;;;;;;;14.20;10.33;;;18.60;99.90;;;;;;4937067;29;20465;-68
2021/07/05 04:42:10;;;;;;;13.17;11.93;;;18.60;99.90;;;;;;4936700;29;20492;-67
2021/07/05 04:44:36;;;;;;;12.00;11.03;;;18.60;99.90;;;;;;4936489;29;20501;-68
2021/07/05 04:47:03;;;;;;;11.77;10.77;;;18.70;99.90;;;;;;4937271;29;20472;-68
2021/07/05 04:49:30;;;;;;;10.60;9.70;;;18.70;99.90;;;;;;4935840;29;20466;-68
2021/07/05 04:51:58;;;;;;;12.20;11.20;;;18.70;99.90;;;;;;4936928;29;20981;-69
2021/07/05 04:54:25;;;;;;;12.13;11.23;;;18.80;99.90;;;;;;4936722;29;20492;-68
2021/07/05 04:56:52;;;;;;;12.57;11.47;;;18.80;99.90;;;;;;4937320;29;20532;-68
2021/07/05 04:59:19;;;;;;;13.57;12.37;;;18.80;99.90;;;;;;4931464;29;20908;-69
2021/07/05 05:01:46;;;;;;;12.03;11.03;;;18.80;99.90;;;;;;4934471;29;20500;-68
2021/07/05 05:04:15;;;;;;;12.83;11.73;;;18.80;99.90;;;;;;4935900;29;20485;-68
2021/07/05 05:06:41;;;;;;;13.10;12.00;;;18.80;99.90;;;;;;4937261;29;20536;-68
2021/07/05 05:09:10;;;;;;;13.20;11.97;;;18.80;99.90;;;;;;4936535;29;20472;-68
2021/07/05 05:11:37;;;;;;;13.37;12.17;;;18.80;99.90;;;;;;4937143;29;20490;-68
2021/07/05 05:14:03;;;;;;;13.13;11.90;;;18.80;99.90;;;;;;4936532;29;20461;-68
2021/07/05 05:16:30;;;;;;;13.17;11.83;;;18.80;99.90;;;;;;4937116;29;20470;-68
2021/07/05 05:18:57;;;;;;;14.27;13.13;;;18.80;99.90;;;;;;4936082;29;20470;-69
2021/07/05 05:21:24;;;;;;;15.63;14.20;;;18.80;99.90;;;;;;4936558;29;20884;-69
2021/07/05 05:23:50;;;;;;;13.60;12.43;;;18.80;99.90;;;;;;4936203;29;20493;-66
2021/07/05 05:26:18;;;;;;;15.70;14.10;;;18.80;99.90;;;;;;4936707;29;20871;-70
2021/07/05 05:28:45;;;;;;;15.87;14.20;;;18.80;99.90;;;;;;4936240;29;20473;-70
2021/07/05 05:31:12;;;;;;;16.03;14.43;;;18.80;99.90;;;;;;4935694;29;20492;-70
2021/07/05 05:33:39;;;;;;;15.40;14.00;;;18.90;99.90;;;;;;4935030;29;20814;-70
2021/07/05 05:36:05;;;;;;;14.97;13.47;;;18.80;99.90;;;;;;4936533;29;20533;-70
2021/07/05 05:38:32;;;;;;;15.80;13.23;;;18.90;99.90;;;;;;4935802;29;20478;-70
2021/07/05 05:40:59;;;;;;;17.10;15.30;;;18.90;99.90;;;;;;4936118;29;20485;-70
2021/07/05 05:43:27;;;;;;;16.80;15.30;;;19.00;99.90;;;;;;4935864;29;20529;-70
2021/07/05 05:46:00;;;;;;;13.47;12.20;;;18.90;99.90;;;;;;4936453;29;20536;-70
2021/07/05 05:48:26;;;;;;;16.70;14.00;;;18.90;99.90;;;;;;4935740;29;20549;-69
2021/07/05 05:50:53;;;;;;;14.57;13.17;;;19.00;99.90;;;;;;4935755;29;20645;-70
2021/07/05 05:53:20;;;;;;;17.77;14.60;;;19.00;99.90;;;;;;4935759;29;20465;-70
2021/07/05 05:55:47;;;;;;;16.93;15.27;;;19.10;99.90;;;;;;4935867;29;20485;-70
2021/07/05 05:58:14;;;;;;;18.57;16.67;;;19.20;99.90;;;;;;4936238;29;20470;-70
2021/07/05 06:00:43;;;;;;;16.80;15.10;;;19.20;99.90;;;;;;4935084;29;20911;-70
2021/07/05 06:03:10;;;;;;;17.03;15.33;;;19.30;99.90;;;;;;4935276;29;20493;-70
2021/07/05 06:05:37;;;;;;;16.00;14.40;;;19.30;99.90;;;;;;4935557;29;20854;-70
2021/07/05 06:08:04;;;;;;;16.53;15.03;;;19.40;99.90;;;;;;4936450;29;20829;-70
2021/07/05 06:10:31;;;;;;;14.70;13.50;;;19.50;99.90;;;;;;4935097;29;20549;-71
2021/07/05 06:12:57;;;;;;;15.80;14.43;;;19.50;99.90;;;;;;4935688;29;20958;-71
2021/07/05 06:15:24;;;;;;;14.63;13.27;;;19.50;99.90;;;;;;4935604;29;21009;-70
2021/07/05 06:17:53;;;;;;;14.90;13.50;;;19.50;99.90;;;;;;4935519;29;20620;-70
2021/07/05 06:20:20;;;;;;;14.20;12.70;;;19.60;99.90;;;;;;4923934;29;20471;-70
2021/07/05 06:22:49;;;;;;;14.60;13.30;;;19.60;99.90;;;;;;4934848;29;21119;-68
2021/07/05 06:25:16;;;;;;;13.07;11.87;;;19.80;99.90;;;;;;4921800;29;20462;-68
2021/07/05 06:27:43;;;;;;;13.70;12.50;;;19.80;99.90;;;;;;4916930;29;20471;-68
2021/07/05 06:30:11;;;;;;;14.53;13.43;;;19.90;99.90;;;;;;4932998;29;20474;-69
2021/07/05 06:32:37;;;;;;;13.90;12.70;;;19.90;99.90;;;;;;4934927;29;20473;-68
2021/07/05 06:35:07;;;;;;;13.83;12.57;;;20.00;99.90;;;;;;4935175;29;20529;-68
2021/07/05 06:37:33;;;;;;;13.53;12.13;;;19.90;99.90;;;;;;4935567;29;20612;-68
2021/07/05 06:40:00;;;;;;;14.17;12.80;;;20.00;99.90;;;;;;4935073;29;20484;-68
2021/07/05 06:42:27;;;;;;;16.33;13.30;;;19.90;99.90;;;;;;4934913;29;20532;-68
2021/07/05 06:44:53;;;;;;;13.77;12.57;;;19.90;99.90;;;;;;4934967;29;20481;-68
2021/07/05 06:47:20;;;;;;;14.23;13.00;;;20.00;99.90;;;;;;4935304;29;20568;-70
2021/07/05 06:49:47;;;;;;;12.90;11.80;;;20.00;99.90;;;;;;4934879;29;20633;-68
2021/07/05 06:52:15;;;;;;;12.53;11.43;;;20.00;99.90;;;;;;4934265;29;20877;-68
2021/07/05 06:54:42;;;;;;;12.87;11.87;;;20.10;99.90;;;;;;4935051;29;20950;-68
2021/07/05 06:57:28;;;;;;;12.87;11.77;;;20.30;99.90;;;;;;4934985;29;20474;-68
2021/07/05 06:59:55;;;;;;;12.63;11.63;;;20.30;99.90;;;;;;4925569;29;20466;-68
2021/07/05 07:02:22;;;;;;;12.80;11.80;;;20.30;99.90;;;;;;4927135;29;20485;-69
2021/07/05 07:04:49;;;;;;;13.27;12.10;;;20.20;99.90;;;;;;4933190;29;20490;-67
2021/07/05 07:07:17;;;;;;;13.13;12.03;;;20.10;99.90;;;;;;4934957;29;20469;-68
2021/07/05 07:09:44;;;;;;;12.20;11.10;;;20.10;99.90;;;;;;4934775;29;20473;-67
2021/07/05 07:12:10;;;;;;;12.80;11.67;;;20.10;99.90;;;;;;4934607;29;20489;-67
2021/07/05 07:14:37;;;;;;;12.93;11.73;;;20.00;99.90;;;;;;4935046;29;20842;-67
2021/07/05 07:17:06;;;;;;;12.83;11.80;;;20.00;99.90;;;;;;4934220;29;20475;-68
2021/07/05 07:19:33;;;;;;;13.23;12.03;;;20.20;99.90;;;;;;4927599;29;20533;-67
2021/07/05 07:22:03;;;;;;;11.80;10.90;;;20.50;99.90;;;;;;4933361;29;20581;-67
2021/07/05 07:24:32;;;;;;;11.30;10.50;;;21.00;99.90;;;;;;4934197;29;20540;-67
2021/07/05 07:26:59;;;;;;;10.30;9.47;;;21.90;99.90;;;;;;4934318;29;20600;-68
2021/07/05 07:29:26;;;;;;;10.80;10.10;;;22.60;99.90;;;;;;4934537;29;20528;-67
2021/07/05 07:31:53;;;;;;;10.10;9.40;;;22.80;99.90;;;;;;4935042;29;20530;-67
2021/07/05 07:34:20;;;;;;;10.37;9.87;;;23.20;99.90;;;;;;4932920;29;20462;-67
2021/07/05 07:36:47;;;;;;;9.13;8.60;;;23.60;99.90;;;;;;4934615;29;20567;-67
2021/07/05 07:39:16;;;;;;;9.13;8.50;;;23.80;99.90;;;;;;4935100;29;20528;-67
2021/07/05 07:41:44;;;;;;;10.17;9.37;;;23.50;99.90;;;;;;4933486;29;20490;-67
2021/07/05 07:44:11;;;;;;;9.30;8.70;;;23.10;99.90;;;;;;4936266;29;20537;-67
2021/07/05 07:46:38;;;;;;;9.10;8.60;;;22.70;99.90;;;;;;4934889;29;20538;-67
2021/07/05 07:49:05;;;;;;;8.63;8.17;;;22.40;99.90;;;;;;4928166;29;20466;-68
2021/07/05 07:51:31;;;;;;;9.03;8.53;;;22.50;99.90;;;;;;4934351;29;20481;-67
2021/07/05 07:53:59;;;;;;;8.93;8.43;;;23.00;99.90;;;;;;4933773;29;20509;-66
2021/07/05 07:56:26;;;;;;;8.10;7.70;;;23.70;99.90;;;;;;4935014;29;20486;-66
2021/07/05 07:58:54;;;;;;;9.10;8.60;;;24.40;99.90;;;;;;4933745;29;20566;-66
2021/07/05 08:01:21;;;;;;;7.23;6.93;;;25.00;99.90;;;;;;4934380;29;20508;-66
2021/07/05 08:03:48;;;;;;;7.40;7.10;;;25.50;99.90;;;;;;4932887;29;20940;-66
2021/07/05 08:06:14;;;;;;;7.90;7.60;;;26.00;99.90;;;;;;4934551;29;20464;-66
2021/07/05 08:08:41;;;;;;;7.17;6.67;;;25.80;99.90;;;;;;4933723;29;20924;-66
2021/07/05 08:11:07;;;;;;;6.40;6.10;;;26.10;99.90;;;;;;4933983;29;20543;-66
2021/07/05 08:13:34;;;;;;;7.27;6.97;;;26.50;99.90;;;;;;4933480;29;20542;-66
2021/07/05 08:16:02;;;;;;;6.63;6.43;;;26.40;99.90;;;;;;4934344;29;20510;-66
2021/07/05 08:18:29;;;;;;;6.53;6.23;;;26.20;99.90;;;;;;4933229;29;20977;-67
2021/07/05 08:20:56;;;;;;;6.07;5.87;;;26.30;99.90;;;;;;4921209;29;20496;-66
2021/07/05 08:23:22;;;;;;;5.33;5.23;;;26.60;99.90;;;;;;4933712;29;20464;-69
2021/07/05 08:25:49;;;;;;;5.83;5.63;;;27.00;99.90;;;;;;4940982;29;20497;-66
2021/07/05 08:28:16;;;;;;;6.43;6.13;;;26.70;99.90;;;;;;4939634;29;20499;-67
2021/07/05 08:30:43;;;;;;;5.67;5.57;;;26.50;99.90;;;;;;4938117;29;20499;-67
2021/07/05 08:33:11;;;;;;;5.93;5.67;;;26.20;99.90;;;;;;4936727;29;20874;-67
2021/07/05 08:35:38;;;;;;;5.57;5.37;;;26.00;99.90;;;;;;4938660;29;20461;-66
2021/07/05 08:38:04;;;;;;;5.60;5.40;;;25.80;99.90;;;;;;4939291;29;20465;-66
2021/07/05 08:40:31;;;;;;;6.13;5.93;;;25.60;99.90;;;;;;4939700;29;20504;-66
2021/07/05 08:43:00;;;;;;;6.03;5.80;;;25.30;99.90;;;;;;4939175;29;20464;-66
2021/07/05 08:45:27;;;;;;;6.00;5.80;;;25.00;99.90;;;;;;4939700;29;20496;-67
2021/07/05 08:47:56;;;;;;;6.93;6.43;;;25.30;99.90;;;;;;4939887;29;20466;-67
2021/07/05 08:50:26;;;;;;;6.20;5.90;;;25.70;99.90;;;;;;4939154;29;20792;-67
2021/07/05 08:52:53;;;;;;;5.17;4.97;;;26.00;99.90;;;;;;4937740;29;20471;-66
2021/07/05 08:55:22;;;;;;;5.70;5.40;;;25.90;99.90;;;;;;4937339;29;20968;-68
2021/07/05 08:57:49;;;;;;;5.70;5.40;;;25.80;99.90;;;;;;4936958;29;20618;-66
2021/07/05 09:00:18;;;;;;;4.93;4.73;;;25.90;99.90;;;;;;4929780;29;20846;-67
2021/07/05 09:02:46;;;;;;;4.80;4.60;;;26.40;99.90;;;;;;4936279;29;20468;-66
2021/07/05 09:05:13;;;;;;;5.03;4.83;;;26.20;99.90;;;;;;4936885;29;20488;-67
2021/07/05 09:08:01;;;;;;;4.93;4.53;;;26.00;99.90;;;;;;4936098;29;20823;-67
2021/07/05 09:10:29;;;;;;;5.03;4.83;;;25.50;99.90;;;;;;4933657;29;20482;-66
2021/07/05 09:13:06;;;;;;;5.50;5.30;;;25.20;99.90;;;;;;4936188;29;20465;-66
2021/07/05 09:15:37;;;;;;;5.03;4.67;;;24.80;99.90;;;;;;4936190;29;20471;-67
2021/07/05 09:18:19;;;;;;;4.20;4.20;;;24.80;99.90;;;;;;4929494;29;20531;-66
2021/07/05 09:20:46;;;;;;;5.07;4.87;;;25.20;99.90;;;;;;4922728;29;20491;-67
2021/07/05 09:23:15;;;;;;;3.63;3.63;;;25.50;99.90;;;;;;4929606;29;20511;-67
2021/07/05 09:25:45;;;;;;;4.20;4.20;;;25.90;99.90;;;;;;4936148;29;20998;-67
2021/07/05 09:28:13;;;;;;;4.63;4.33;;;26.20;99.90;;;;;;4935481;29;20476;-67
2021/07/05 09:30:42;;;;;;;4.20;4.10;;;26.00;99.90;;;;;;4936629;29;20511;-66
2021/07/05 09:33:18;;;;;;;3.97;3.97;;;26.00;99.90;;;;;;4937167;29;20529;-68
2021/07/05 09:35:45;;;;;;;3.93;3.93;;;26.20;99.90;;;;;;4938139;29;20514;-67
2021/07/05 09:38:13;;;;;;;3.87;3.87;;;26.00;99.90;;;;;;4933633;29;20461;-67
2021/07/05 09:40:40;;;;;;;4.73;4.53;;;25.80;99.90;;;;;;4931981;29;20817;-66
2021/07/05 09:43:22;;;;;;;4.40;4.20;;;25.60;99.90;;;;;;4935424;29;20469;-67
2021/07/05 09:45:49;;;;;;;3.60;3.60;;;25.50;99.90;;;;;;4934299;29;20495;-66
2021/07/05 09:48:18;;;;;;;3.70;3.60;;;25.40;99.90;;;;;;4934649;29;20464;-67
2021/07/05 09:50:47;;;;;;;3.20;3.20;;;25.10;99.90;;;;;;4935188;29;20495;-66
2021/07/05 09:53:39;;;;;;;3.93;3.83;;;25.00;99.90;;;;;;4935501;29;20463;-66
2021/07/05 09:56:23;;;;;;;3.60;3.57;;;25.00;99.90;;;;;;4932809;29;20962;-66
2021/07/05 09:58:52;;;;;;;3.27;3.07;;;24.90;99.90;;;;;;4930522;29;20475;-67
2021/07/05 10:01:41;;;;;;;4.30;4.20;;;24.90;99.90;;;;;;4937031;29;20500;-67
2021/07/05 10:04:09;;;;;;;3.67;3.60;;;25.00;99.90;;;;;;4931084;29;20470;-67
2021/07/05 10:06:41;;;;;;;3.43;3.33;;;25.20;99.90;;;;;;4934198;29;20556;-67
2021/07/05 10:09:11;;;;;;;3.77;3.67;;;25.30;99.90;;;;;;4931287;29;20528;-67
2021/07/05 10:11:38;;;;;;;3.40;3.40;;;25.20;99.90;;;;;;4932768;29;20584;-71
2021/07/05 10:14:14;;;;;;;4.20;4.10;;;25.10;99.90;;;;;;4930975;29;20482;-68
2021/07/05 10:16:42;;;;;;;3.90;3.80;;;24.90;99.90;;;;;;4932208;29;20583;-67
2021/07/05 10:19:10;;;;;;;3.40;3.40;;;24.80;99.90;;;;;;4934714;29;20479;-67
2021/07/05 10:21:37;;;;;;;3.47;3.47;;;24.90;99.90;;;;;;4934334;29;20584;-67
2021/07/05 10:24:06;;;;;;;3.43;3.43;;;25.00;99.90;;;;;;4933407;29;20472;-67
2021/07/05 10:26:35;;;;;;;3.17;3.17;;;25.10;99.90;;;;;;4934497;29;20466;-67
2021/07/05 10:29:02;;;;;;;3.30;3.07;;;25.30;99.90;;;;;;4934517;29;20481;-66
2021/07/05 10:31:29;;;;;;;3.00;3.00;;;25.30;99.90;;;;;;4932687;29;20493;-68
2021/07/05 10:33:59;;;;;;;3.30;3.30;;;25.30;99.90;;;;;;4933874;29;20469;-68
2021/07/05 10:36:30;;;;;;;2.90;2.87;;;25.40;99.90;;;;;;4936135;29;20461;-66
2021/07/05 10:39:00;;;;;;;3.27;3.07;;;25.30;99.90;;;;;;4919031;29;20455;-67
2021/07/05 10:41:36;;;;;;;2.90;2.90;;;25.30;99.90;;;;;;4935246;29;20488;-67
2021/07/05 10:44:05;;;;;;;3.33;3.23;;;25.30;99.90;;;;;;4915857;29;20910;-66
2021/07/05 10:46:41;;;;;;;2.90;2.90;;;25.20;99.90;;;;;;4934088;29;20632;-68
2021/07/05 10:49:08;;;;;;;2.97;2.53;;;25.10;99.90;;;;;;4934238;29;20453;-66
2021/07/05 10:51:42;;;;;;;2.73;2.63;;;25.10;99.90;;;;;;4934951;29;20589;-66
2021/07/05 10:54:09;;;;;;;2.83;2.83;;;25.00;99.90;;;;;;4927877;29;20470;-67
2021/07/05 10:56:43;;;;;;;3.23;3.13;;;25.00;99.90;;;;;;4934587;29;21082;-66
2021/07/05 10:59:44;;;;;;;2.77;2.70;;;25.20;99.90;;;;;;4930928;29;20470;-68
2021/07/05 11:02:37;;;;;;;2.70;2.70;;;25.30;99.90;;;;;;4934443;29;20601;-67
2021/07/05 11:05:06;;;;;;;2.40;2.40;;;25.30;99.90;;;;;;4933764;29;20487;-66
2021/07/05 11:07:44;;;;;;;2.80;2.70;;;25.50;99.90;;;;;;4928305;29;20582;-66
2021/07/05 11:10:24;;;;;;;2.40;2.20;;;25.60;99.90;;;;;;4922469;29;20482;-66
2021/07/05 11:13:01;;;;;;;2.10;2.10;;;25.60;99.90;;;;;;4934356;29;20808;-66
2021/07/05 11:15:47;;;;;;;2.53;2.53;;;25.70;99.90;;;;;;4934760;29;20450;-66
2021/07/05 11:19:07;;;;;;;2.00;2.00;;;25.80;99.90;;;;;;4934098;29;20793;-66
2021/07/05 11:22:04;;;;;;;2.43;2.43;;;25.60;99.90;;;;;;4932749;29;20584;-66
2021/07/05 11:24:43;;;;;;;2.67;2.67;;;25.40;99.90;;;;;;4934214;29;20473;-66
2021/07/05 11:27:47;;;;;;;2.60;2.50;;;25.40;99.90;;;;;;4927279;29;20514;-66
2021/07/05 11:30:33;;;;;;;2.37;2.27;;;25.60;99.90;;;;;;4933511;29;20473;-67
2021/07/05 11:33:04;;;;;;;2.40;2.30;;;25.90;99.90;;;;;;4933881;29;20938;-66
2021/07/05 11:35:37;;;;;;;2.73;2.67;;;26.00;99.90;;;;;;4931429;29;20470;-66
2021/07/05 11:38:08;;;;;;;2.00;2.00;;;26.00;99.90;;;;;;4934859;29;20508;-66
2021/07/05 11:40:41;;;;;;;2.07;2.07;;;26.00;99.90;;;;;;4931366;29;20485;-68
2021/07/05 11:43:08;;;;;;;2.00;2.00;;;26.20;99.90;;;;;;4934108;29;20483;-66
2021/07/05 11:45:41;;;;;;;2.10;2.10;;;26.20;99.90;;;;;;4934844;29;20503;-66
2021/07/05 11:48:08;;;;;;;2.07;2.07;;;26.20;99.90;;;;;;4933814;29;20485;-68
2021/07/05 11:50:40;;;;;;;1.80;1.80;;;26.00;99.90;;;;;;4930142;29;20542;-66
2021/07/05 11:53:14;;;;;;;1.97;1.97;;;25.90;99.90;;;;;;4934525;29;20469;-66
2021/07/05 11:55:41;;;;;;;1.70;1.70;;;25.90;99.90;;;;;;4934786;29;20539;-66
2021/07/05 11:58:09;;;;;;;1.57;1.57;;;25.80;99.90;;;;;;4929704;29;20520;-66
2021/07/05 12:00:38;;;;;;;1.40;1.40;;;25.90;99.90;;;;;;4934189;29;20530;-67
2021/07/05 12:03:09;;;;;;;1.63;1.63;;;26.00;99.90;;;;;;4934035;29;20482;-66
2021/07/05 12:05:36;;;;;;;1.60;1.60;;;26.00;99.90;;;;;;4934176;29;20545;-69
2021/07/05 12:08:05;;;;;;;1.90;1.90;;;26.10;99.90;;;;;;4934419;29;20585;-67
2021/07/05 12:10:34;;;;;;;1.60;1.60;;;26.00;99.90;;;;;;4937791;29;21009;-67
2021/07/05 12:13:15;;;;;;;1.83;1.83;;;25.80;99.90;;;;;;4937814;29;20470;-67
2021/07/05 12:15:44;;;;;;;1.90;1.90;;;25.60;99.90;;;;;;4938090;29;20470;-67
2021/07/05 12:18:15;;;;;;;1.70;1.70;;;25.40;99.90;;;;;;4937376;29;20542;-67
2021/07/05 12:20:42;;;;;;;1.40;1.30;;;25.10;99.90;;;;;;4921641;29;20581;-67
2021/07/05 12:23:10;;;;;;;0.90;0.90;;;24.70;99.90;;;;;;4918994;29;20536;-67
2021/07/05 12:25:39;;;;;;;2.67;0.67;;;23.40;99.90;;;;;;4918830;29;20538;-67
2021/07/05 12:28:13;;;;;;;4.03;0.83;;;23.20;99.90;;;;;;4928442;29;20488;-67
2021/07/05 12:30:45;;;;;;;1.90;0.80;;;22.50;99.90;;;;;;4936545;29;20526;-67
2021/07/05 12:33:12;;;;;;;1.23;1.00;;;22.10;99.90;;;;;;4936972;29;20465;-66
2021/07/05 12:35:40;;;;;;;0.70;0.70;;;21.60;99.90;;;;;;4935576;29;20468;-66
2021/07/05 12:38:11;;;;;;;0.70;0.70;;;20.90;99.90;;;;;;4923557;29;20465;-66
2021/07/05 12:40:41;;;;;;;0.90;0.90;;;20.40;99.90;;;;;;4927925;29;20486;-71
2021/07/05 12:43:09;;;;;;;1.30;1.20;;;20.20;99.90;;;;;;4928244;29;20534;-67
2021/07/05 12:45:42;;;;;;;1.30;1.20;;;19.80;99.90;;;;;;4933375;29;20489;-67
2021/07/05 12:48:14;;;;;;;1.10;1.10;;;19.60;99.90;;;;;;4929521;29;20592;-67
2021/07/05 12:50:47;;;;;;;1.50;1.40;;;19.40;99.90;;;;;;4941510;29;20568;-67
2021/07/05 12:53:20;;;;;;;1.50;1.23;;;19.30;99.90;;;;;;4940510;29;20474;-67
2021/07/05 12:56:00;;;;;;;1.43;1.43;;;19.30;99.90;;;;;;4935496;29;20454;-66
2021/07/05 12:58:42;;;;;;;1.30;1.20;;;19.30;99.90;;;;;;4936589;29;20473;-70
2021/07/05 13:01:12;;;;;;;1.20;1.10;;;19.20;99.90;;;;;;4929255;29;20849;-67
2021/07/05 13:03:39;;;;;;;3.40;1.17;;;19.10;99.90;;;;;;4939766;29;20785;-67
2021/07/05 13:06:08;;;;;;;1.27;1.27;;;19.20;99.90;;;;;;4947810;29;20480;-67
2021/07/05 13:08:35;;;;;;;1.00;1.00;;;19.10;99.90;;;;;;4931459;29;20966;-67
2021/07/05 13:11:14;;;;;;;0.80;0.80;;;19.20;99.90;;;;;;4937225;29;20974;-67
2021/07/05 13:13:43;;;;;;;1.43;1.43;;;19.10;99.90;;;;;;4934390;29;20477;-73
2021/07/05 13:16:18;;;;;;;1.30;1.30;;;19.20;99.90;;;;;;4917607;29;20570;-68
2021/07/05 13:18:45;;;;;;;1.00;1.00;;;19.30;99.90;;;;;;4933642;29;20532;-68
2021/07/05 13:21:12;;;;;;;1.57;1.50;;;19.20;99.90;;;;;;4935954;29;21042;-68
2021/07/05 13:23:43;;;;;;;1.60;1.47;;;19.20;99.90;;;;;;4935939;29;20822;-68
2021/07/05 13:26:11;;;;;;;1.30;1.30;;;19.20;99.90;;;;;;4936806;29;20556;-67
2021/07/05 13:28:46;;;;;;;1.10;1.10;;;19.30;99.90;;;;;;4936046;29;20473;-68
2021/07/05 13:31:28;;;;;;;1.63;1.53;;;19.40;99.90;;;;;;4935750;29;20494;-68
2021/07/05 13:33:54;;;;;;;1.20;1.20;;;19.50;99.90;;;;;;4932235;29;20477;-68
2021/07/05 13:36:21;;;;;;;2.23;2.13;;;19.60;99.90;;;;;;4926408;29;20569;-67
2021/07/05 13:38:48;;;;;;;1.57;1.57;;;19.90;99.90;;;;;;4936416;29;20466;-68
2021/07/05 13:41:15;;;;;;;2.03;1.93;;;20.20;99.90;;;;;;4936542;29;20488;-67
2021/07/05 13:43:51;;;;;;;2.30;2.30;;;20.40;99.90;;;;;;4934219;29;20481;-68
2021/07/05 13:46:18;;;;;;;2.53;2.43;;;20.60;99.90;;;;;;4935837;29;20489;-67
2021/07/05 13:48:45;;;;;;;3.27;3.07;;;20.90;99.90;;;;;;4932123;29;20517;-68
2021/07/05 13:51:14;;;;;;;2.30;2.20;;;20.90;99.90;;;;;;4929369;29;20505;-67
2021/07/05 13:53:43;;;;;;;3.10;3.10;;;20.90;99.90;;;;;;4933321;29;20467;-67
2021/07/05 13:56:13;;;;;;;2.53;2.43;;;21.10;99.90;;;;;;4935461;29;20986;-67
2021/07/05 13:58:44;;;;;;;2.53;2.43;;;21.20;99.90;;;;;;4936102;29;20797;-67
2021/07/05 14:01:15;;;;;;;2.00;2.00;;;21.30;99.90;;;;;;4935954;29;20974;-67
2021/07/05 14:03:42;;;;;;;2.23;2.23;;;21.20;99.90;;;;;;4934621;29;20478;-67
2021/07/05 14:06:17;;;;;;;2.30;2.30;;;21.30;99.90;;;;;;4934877;29;20488;-67
2021/07/05 14:08:47;;;;;;;2.60;2.60;;;21.30;99.90;;;;;;4934002;29;20465;-66
2021/07/05 14:11:16;;;;;;;2.50;2.50;;;21.30;99.90;;;;;;4934002;29;20490;-67
2021/07/05 14:13:44;;;;;;;2.40;2.30;;;21.20;99.90;;;;;;4934134;29;20949;-66
2021/07/05 14:16:13;;;;;;;2.43;2.43;;;21.30;99.90;;;;;;4931043;29;20505;-67
2021/07/05 14:18:41;;;;;;;2.40;2.40;;;21.50;99.90;;;;;;4931439;29;20560;-66
2021/07/05 14:21:09;;;;;;;2.73;2.73;;;21.70;99.90;;;;;;4916471;29;20585;-67
2021/07/05 14:23:37;;;;;;;2.50;2.30;;;21.90;99.90;;;;;;4933918;29;20470;-67
2021/07/05 14:26:05;;;;;;;2.60;2.60;;;21.90;99.90;;;;;;4935621;29;20489;-67
2021/07/05 14:28:32;;;;;;;2.83;2.67;;;22.10;99.90;;;;;;4935248;29;20465;-67
2021/07/05 14:31:00;;;;;;;1.90;1.90;;;22.20;99.90;;;;;;4935847;29;20522;-67
2021/07/05 14:33:28;;;;;;;2.23;2.23;;;22.20;99.90;;;;;;4933484;29;20464;-67
2021/07/05 14:35:58;;;;;;;2.23;2.13;;;22.10;99.90;;;;;;4935759;29;20461;-67
2021/07/05 14:38:25;;;;;;;2.30;2.30;;;21.90;99.90;;;;;;4934621;29;20490;-67
2021/07/05 14:40:52;;;;;;;2.60;2.60;;;22.00;99.90;;;;;;4935289;29;20549;-67
2021/07/05 14:43:19;;;;;;;2.80;2.77;;;22.10;99.90;;;;;;4934936;29;20465;-67
2021/07/05 14:45:46;;;;;;;2.50;2.40;;;22.20;99.90;;;;;;4935344;29;20484;-67
2021/07/05 14:48:13;;;;;;;2.30;2.27;;;22.20;99.90;;;;;;4934343;29;20473;-67
2021/07/05 14:50:42;;;;;;;3.00;2.90;;;22.00;99.90;;;;;;4934411;29;20489;-67
2021/07/05 14:53:10;;;;;;;2.60;2.60;;;21.90;99.90;;;;;;4934792;29;20465;-67
2021/07/05 14:55:36;;;;;;;2.10;2.00;;;21.90;99.90;;;;;;4935066;29;20473;-67
2021/07/05 14:58:07;;;;;;;3.50;3.30;;;22.00;99.90;;;;;;4934734;29;20462;-67
2021/07/05 15:00:35;;;;;;;2.77;2.67;;;22.10;99.90;;;;;;4925650;29;20489;-67
2021/07/05 15:03:05;;;;;;;2.83;2.83;;;22.20;99.90;;;;;;4937172;29;20473;-67
2021/07/05 15:05:32;;;;;;;2.93;2.90;;;22.20;99.90;;;;;;4934895;29;20473;-67
2021/07/05 15:08:00;;;;;;;2.40;2.30;;;22.20;99.90;;;;;;4932792;29;21110;-67
2021/07/05 15:10:27;;;;;;;2.83;2.83;;;22.20;99.90;;;;;;4932289;29;20485;-67
2021/07/05 15:12:56;;;;;;;2.67;2.67;;;22.20;99.90;;;;;;4934801;29;20477;-66
2021/07/05 15:15:24;;;;;;;2.40;2.40;;;22.40;99.90;;;;;;4934605;29;20458;-67
2021/07/05 15:17:51;;;;;;;2.33;2.33;;;22.60;99.90;;;;;;4934085;29;20461;-67
2021/07/05 15:20:23;;;;;;;2.63;2.63;;;22.70;99.90;;;;;;4930096;29;20472;-67
2021/07/05 15:22:50;;;;;;;2.10;2.10;;;23.10;99.90;;;;;;4931421;29;20485;-67
2021/07/05 15:25:18;;;;;;;1.97;1.97;;;23.20;99.90;;;;;;4931240;29;20496;-68
2021/07/05 15:27:45;;;;;;;2.30;2.20;;;23.30;99.90;;;;;;4929160;29;20489;-67
2021/07/05 15:30:13;;;;;;;2.07;2.07;;;23.50;99.90;;;;;;4932996;29;21443;-67
2021/07/05 15:32:40;;;;;;;2.00;2.00;;;23.40;99.90;;;;;;4933339;29;21196;-67
2021/07/05 15:35:09;;;;;;;1.93;1.93;;;23.40;99.90;;;;;;4934001;29;20466;-68
2021/07/05 15:37:36;;;;;;;2.20;2.20;;;23.20;99.90;;;;;;4927631;29;20493;-67
2021/07/05 15:40:04;;;;;;;2.03;2.03;;;23.40;99.90;;;;;;4934756;29;20817;-67
2021/07/05 15:42:32;;;;;;;2.10;2.10;;;23.40;99.90;;;;;;4916644;29;20813;-67
2021/07/05 15:44:59;;;;;;;2.00;2.00;;;23.30;99.90;;;;;;4941000;28;20548;-67
2021/07/05 15:47:25;;;;;;;1.90;1.90;;;23.10;99.90;;;;;;4938175;29;20564;-67
2021/07/05 15:49:53;;;;;;;2.27;2.17;;;23.10;99.90;;;;;;4928383;29;20461;-66
2021/07/05 15:52:21;;;;;;;1.60;1.60;;;23.30;99.90;;;;;;4936615;29;20513;-68
2021/07/05 15:54:49;;;;;;;2.50;2.40;;;23.40;99.90;;;;;;4938491;29;20558;-68
2021/07/05 15:57:16;;;;;;;2.20;2.20;;;23.40;99.90;;;;;;4934913;29;21125;-67
2021/07/05 15:59:44;;;;;;;1.90;1.90;;;23.40;99.90;;;;;;4937256;29;20507;-68
2021/07/05 16:02:11;;;;;;;2.40;2.40;;;23.50;99.90;;;;;;4934639;29;20866;-68
2021/07/05 16:04:38;;;;;;;2.20;2.20;;;23.30;99.90;;;;;;4935228;29;20962;-67
2021/07/05 16:07:05;;;;;;;2.40;2.40;;;23.20;99.90;;;;;;4937663;29;20822;-69
2021/07/05 16:09:31;;;;;;;2.43;2.43;;;23.10;99.90;;;;;;4935769;29;20492;-70
2021/07/05 16:11:58;;;;;;;2.53;2.43;;;23.10;99.90;;;;;;4938398;29;20540;-69
2021/07/05 16:14:25;;;;;;;2.43;2.37;;;22.90;99.90;;;;;;4937352;29;20529;-69
2021/07/05 16:16:53;;;;;;;3.30;3.30;;;22.90;99.90;;;;;;4937513;29;20524;-70
2021/07/05 16:19:19;;;;;;;2.53;2.53;;;22.70;99.90;;;;;;4931644;29;20482;-70
2021/07/05 16:21:46;;;;;;;2.50;2.50;;;22.60;99.90;;;;;;4918808;29;20497;-70
2021/07/05 16:24:13;;;;;;;2.83;2.83;;;22.50;99.90;;;;;;4931956;29;20832;-71
2021/07/05 16:26:40;;;;;;;2.70;2.60;;;22.50;99.90;;;;;;4936217;29;20485;-70
2021/07/05 16:29:06;;;;;;;2.53;2.53;;;22.50;99.90;;;;;;4937708;29;20461;-69
2021/07/05 16:31:33;;;;;;;2.23;2.23;;;22.60;99.90;;;;;;4937777;29;20482;-70
2021/07/05 16:34:01;;;;;;;3.27;3.07;;;22.70;99.90;;;;;;4936587;29;20521;-70
2021/07/05 16:36:28;;;;;;;2.40;2.40;;;22.70;99.90;;;;;;4937642;29;20453;-70
2021/07/05 16:38:55;;;;;;;2.17;2.17;;;22.70;99.90;;;;;;4937753;29;20531;-70
2021/07/05 16:41:22;;;;;;;3.17;3.17;;;22.80;99.90;;;;;;4937842;29;20482;-70
2021/07/05 16:43:49;;;;;;;2.20;2.20;;;22.90;99.90;;;;;;4935652;29;20514;-70
2021/07/05 16:46:16;;;;;;;2.33;2.33;;;22.90;99.90;;;;;;4930209;29;20979;-70
2021/07/05 16:48:42;;;;;;;2.23;2.23;;;23.10;99.90;;;;;;4935654;29;20605;-70
2021/07/05 16:51:19;;;;;;;2.57;2.47;;;23.10;99.90;;;;;;4937712;29;20998;-70